createdAt,value
2018-09-06T00:02:24.225Z,61.23
2018-09-06T00:04:52.137Z,61.86
2018-09-06T00:07:18.903Z,62.57
2018-09-06T00:09:46.489Z,61.66
2018-09-06T00:12:13.222Z,61.66
2018-09-06T00:14:39.880Z,61.68
2018-09-06T00:17:07.390Z,61.02
2018-09-06T00:19:34.905Z,62.48
2018-09-06T00:22:02.725Z,61.43
2018-09-06T00:24:30.062Z,61.68
2018-09-06T00:26:57.643Z,60.91
2018-09-06T00:29:24.322Z,61.56
2018-09-06T00:31:52.970Z,60.68
2018-09-06T00:34:20.665Z,61.32
2018-09-06T00:36:47.370Z,60.70
2018-09-06T00:39:14.033Z,61.92
2018-09-06T00:41:40.690Z,61.72
2018-09-06T00:44:07.357Z,61.89
2018-09-06T00:46:34.006Z,61.24
2018-09-06T00:49:00.701Z,61.48
2018-09-06T00:51:27.386Z,62.39
2018-09-06T00:53:54.041Z,61.08
2018-09-06T00:56:21.971Z,61.25
2018-09-06T00:58:48.679Z,61.94
2018-09-06T01:01:15.352Z,61.97
2018-09-06T01:03:42.044Z,62.07
2018-09-06T01:06:08.753Z,61.68
2018-09-06T01:08:36.402Z,62.55
2018-09-06T01:11:03.053Z,62.64
2018-09-06T01:13:30.865Z,61.97
2018-09-06T01:15:57.518Z,61.56
2018-09-06T01:18:25.070Z,61.56
2018-09-06T01:20:52.717Z,61.91
2018-09-06T01:23:21.715Z,62.92
2018-09-06T01:25:48.880Z,62.18
2018-09-06T01:28:17.379Z,62.62
2018-09-06T01:30:44.887Z,63.17
2018-09-06T01:33:11.601Z,61.65
2018-09-06T01:35:42.869Z,62.24
2018-09-06T01:38:09.870Z,61.75
2018-09-06T01:40:36.562Z,62.53
2018-09-06T01:43:04.173Z,61.67
2018-09-06T01:45:31.055Z,62.69
2018-09-06T01:47:59.637Z,61.79
2018-09-06T01:50:26.313Z,61.08
2018-09-06T01:52:53.769Z,62.55
2018-09-06T01:55:21.342Z,61.88
2018-09-06T01:57:49.050Z,62.07
2018-09-06T02:00:16.645Z,62.58
2018-09-06T02:02:43.377Z,62.36
2018-09-06T02:05:10.061Z,61.62
2018-09-06T02:07:37.713Z,62.94
2018-09-06T02:10:05.396Z,63.14
2018-09-06T02:12:33.004Z,61.88
2018-09-06T02:15:00.628Z,61.33
2018-09-06T02:17:28.332Z,62.54
2018-09-06T02:19:56.660Z,61.72
2018-09-06T02:22:24.209Z,61.61
2018-09-06T02:24:51.671Z,61.75
2018-09-06T02:27:19.309Z,62.25
2018-09-06T02:29:46.010Z,62.73
2018-09-06T02:32:13.711Z,62.21
2018-09-06T02:34:40.469Z,61.92
2018-09-06T02:37:07.933Z,61.31
2018-09-06T02:39:35.069Z,62.85
2018-09-06T02:42:02.581Z,61.69
2018-09-06T02:44:30.524Z,61.45
2018-09-06T02:46:58.204Z,60.92
2018-09-06T02:49:30.656Z,61.26
2018-09-06T02:51:58.181Z,63.28
2018-09-06T02:54:24.857Z,62.67
2018-09-06T02:56:52.437Z,60.59
2018-09-06T02:59:19.098Z,62.57
2018-09-06T03:01:46.631Z,62.87
2018-09-06T03:04:13.338Z,62.53
2018-09-06T03:06:40.849Z,62.13
2018-09-06T03:09:08.424Z,61.84
2018-09-06T03:11:40.757Z,62.97
2018-09-06T03:14:08.909Z,62.38
2018-09-06T03:16:36.513Z,62.27
2018-09-06T03:19:04.133Z,62.28
2018-09-06T03:21:30.852Z,62.84
2018-09-06T03:23:57.572Z,62.52
2018-09-06T03:26:25.085Z,61.52
2018-09-06T03:28:52.540Z,63.00
2018-09-06T03:31:21.298Z,62.17
2018-09-06T03:33:47.960Z,61.81
2018-09-06T03:36:15.012Z,61.80
2018-09-06T03:38:41.704Z,61.47
2018-09-06T03:41:08.449Z,61.89
2018-09-06T03:43:35.149Z,61.33
2018-09-06T03:46:01.821Z,63.01
2018-09-06T03:48:29.140Z,62.25
2018-09-06T03:50:55.836Z,62.41
2018-09-06T03:53:22.519Z,61.97
2018-09-06T03:55:51.357Z,62.11
2018-09-06T03:58:20.678Z,63.59
2018-09-06T04:00:47.593Z,61.83
2018-09-06T04:03:15.178Z,61.58
2018-09-06T04:05:42.813Z,62.98
2018-09-06T04:08:10.401Z,63.14
2018-09-06T04:10:38.000Z,62.63
2018-09-06T04:13:05.601Z,62.96
2018-09-06T04:15:33.283Z,61.71
2018-09-06T04:18:00.871Z,61.37
2018-09-06T04:20:28.405Z,61.52
2018-09-06T04:22:57.510Z,61.89
2018-09-06T04:25:25.267Z,62.21
2018-09-06T04:27:52.809Z,60.65
2018-09-06T04:30:20.290Z,61.47
2018-09-06T04:32:47.908Z,61.42
2018-09-06T04:35:14.628Z,61.74
2018-09-06T04:37:41.308Z,61.09
2018-09-06T04:40:08.168Z,61.26
2018-09-06T04:42:35.697Z,61.06
2018-09-06T04:45:02.422Z,61.39
2018-09-06T04:47:30.291Z,61.40
2018-09-06T04:49:57.097Z,61.48
2018-09-06T04:52:24.125Z,60.45
2018-09-06T04:54:51.793Z,61.56
2018-09-06T04:57:18.581Z,61.41
2018-09-06T04:59:45.254Z,60.54
2018-09-06T05:02:13.015Z,61.09
2018-09-06T05:04:40.597Z,61.92
2018-09-06T05:07:08.261Z,60.49
2018-09-06T05:09:34.944Z,60.34
2018-09-06T05:12:02.431Z,60.65
2018-09-06T05:14:30.141Z,60.69
2018-09-06T05:16:56.796Z,61.45
2018-09-06T05:19:23.501Z,60.81
2018-09-06T05:21:51.151Z,60.89
2018-09-06T05:24:17.841Z,61.51
2018-09-06T05:26:45.619Z,60.65
2018-09-06T05:29:12.320Z,60.81
2018-09-06T05:31:39.773Z,60.73
2018-09-06T05:34:06.449Z,59.85
2018-09-06T05:36:33.153Z,59.38
2018-09-06T05:39:01.068Z,59.03
2018-09-06T05:41:27.727Z,59.17
2018-09-06T05:43:55.217Z,59.58
2018-09-06T05:46:22.769Z,59.75
2018-09-06T05:48:49.472Z,59.46
2018-09-06T05:51:16.141Z,59.52
2018-09-06T05:53:42.797Z,58.57
2018-09-06T05:56:09.532Z,59.45
2018-09-06T05:58:36.244Z,58.77
2018-09-06T06:01:02.904Z,59.22
2018-09-06T06:03:30.434Z,59.23
2018-09-06T06:05:57.093Z,58.87
2018-09-06T06:08:30.361Z,58.14
2018-09-06T06:10:57.014Z,59.25
2018-09-06T06:13:23.655Z,59.68
2018-09-06T06:15:51.822Z,58.47
2018-09-06T06:18:18.548Z,59.35
2018-09-06T06:20:45.201Z,58.20
2018-09-06T06:23:12.732Z,59.05
2018-09-06T06:25:40.416Z,58.50
2018-09-06T06:28:08.092Z,59.00
2018-09-06T06:30:35.669Z,58.83
2018-09-06T06:33:03.250Z,59.04
2018-09-06T06:35:30.922Z,59.08
2018-09-06T06:37:57.692Z,58.99
2018-09-06T06:40:24.590Z,58.80
2018-09-06T06:42:53.541Z,58.48
2018-09-06T06:45:21.504Z,59.19
2018-09-06T06:47:48.161Z,60.24
2018-09-06T06:50:14.860Z,58.77
2018-09-06T06:52:41.541Z,59.49
2018-09-06T06:55:08.185Z,59.59
2018-09-06T06:57:34.859Z,60.15
2018-09-06T07:00:02.502Z,59.47
2018-09-06T07:02:30.916Z,58.94
2018-09-06T07:04:57.576Z,58.95
2018-09-06T07:07:24.228Z,60.01
2018-09-06T07:09:51.956Z,58.90
2018-09-06T07:12:18.622Z,59.64
2018-09-06T07:14:45.324Z,59.95
2018-09-06T07:17:12.121Z,58.60
2018-09-06T07:19:38.994Z,59.91
2018-09-06T07:22:05.700Z,59.96
2018-09-06T07:24:32.345Z,59.67
2018-09-06T07:26:59.221Z,60.63
2018-09-06T07:29:25.869Z,60.27
2018-09-06T07:31:52.795Z,60.59
2018-09-06T07:34:19.449Z,60.54
2018-09-06T07:36:46.129Z,60.05
2018-09-06T07:39:13.021Z,60.91
2018-09-06T07:41:39.793Z,60.17
2018-09-06T07:44:06.615Z,60.35
2018-09-06T07:46:33.729Z,61.16
2018-09-06T07:49:00.389Z,61.12
2018-09-06T07:51:27.083Z,60.85
2018-09-06T07:53:54.610Z,60.52
2018-09-06T07:56:21.256Z,61.20
2018-09-06T07:58:47.912Z,61.30
2018-09-06T08:01:15.543Z,61.18
2018-09-06T08:03:43.044Z,61.37
2018-09-06T08:06:10.540Z,60.62
2018-09-06T08:08:38.134Z,60.78
2018-09-06T08:11:05.804Z,60.50
2018-09-06T08:13:32.477Z,61.11
2018-09-06T08:15:59.286Z,60.61
2018-09-06T08:18:25.924Z,60.86
2018-09-06T08:20:52.760Z,60.77
2018-09-06T08:23:20.267Z,61.40
2018-09-06T08:25:46.959Z,61.52
2018-09-06T08:28:14.418Z,61.51
2018-09-06T08:30:41.386Z,60.88
2018-09-06T08:33:08.031Z,61.36
2018-09-06T08:35:36.276Z,60.60
2018-09-06T08:38:03.208Z,61.51
2018-09-06T08:40:30.055Z,60.71
2018-09-06T08:42:56.717Z,60.85
2018-09-06T08:45:23.533Z,61.60
2018-09-06T08:47:51.191Z,61.01
2018-09-06T08:50:18.001Z,60.85
2018-09-06T08:52:45.697Z,61.46
2018-09-06T08:55:15.958Z,60.95
2018-09-06T08:57:42.981Z,60.90
2018-09-06T09:00:09.641Z,60.76
2018-09-06T09:02:37.246Z,61.69
2018-09-06T09:05:03.961Z,61.08
2018-09-06T09:07:30.669Z,61.37
2018-09-06T09:09:57.312Z,61.06
2018-09-06T09:12:23.951Z,61.74
2018-09-06T09:14:51.583Z,61.50
2018-09-06T09:17:18.277Z,61.35
2018-09-06T09:19:45.492Z,61.97
2018-09-06T09:22:13.432Z,61.43
2018-09-06T09:24:40.936Z,61.24
2018-09-06T09:27:07.576Z,61.93
2018-09-06T09:29:35.305Z,61.23
2018-09-06T09:32:02.009Z,62.07
2018-09-06T09:34:29.494Z,61.75
2018-09-06T09:36:57.137Z,61.94
2018-09-06T09:39:24.748Z,62.03
2018-09-06T09:41:51.389Z,61.27
2018-09-06T09:44:18.045Z,61.80
2018-09-06T09:49:13.700Z,61.36
2018-09-06T09:51:41.263Z,62.08
2018-09-06T09:54:08.816Z,61.55
2018-09-06T09:56:35.469Z,62.25
2018-09-06T09:59:02.185Z,61.54
2018-09-06T10:01:34.564Z,61.40
2018-09-06T10:04:06.808Z,62.45
2018-09-06T10:06:40.097Z,61.77
2018-09-06T10:09:15.587Z,61.67
2018-09-06T10:11:43.321Z,62.35
2018-09-06T10:14:10.796Z,62.50
2018-09-06T10:16:37.438Z,62.10
2018-09-06T10:19:04.084Z,61.67
2018-09-06T10:21:30.727Z,62.45
2018-09-06T10:23:57.377Z,61.54
2018-09-06T10:26:24.057Z,62.59
2018-09-06T10:28:51.845Z,62.19
2018-09-06T10:31:18.504Z,62.28
2018-09-06T10:33:45.889Z,62.24
2018-09-06T10:36:12.557Z,62.39
2018-09-06T10:38:39.199Z,61.83
2018-09-06T10:41:06.780Z,61.69
2018-09-06T10:43:33.433Z,61.73
2018-09-06T10:46:00.100Z,62.34
2018-09-06T10:48:26.749Z,62.20
2018-09-06T10:50:53.441Z,61.68
2018-09-06T10:53:22.037Z,61.97
2018-09-06T10:55:50.563Z,62.17
2018-09-06T10:58:17.432Z,61.76
2018-09-06T11:00:44.147Z,62.13
2018-09-06T11:03:11.644Z,62.59
2018-09-06T11:05:38.281Z,62.60
2018-09-06T11:08:05.920Z,62.58
2018-09-06T11:10:32.531Z,62.72
2018-09-06T11:12:59.992Z,61.86
2018-09-06T11:15:26.766Z,62.64
2018-09-06T11:17:53.407Z,62.32
2018-09-06T11:20:20.884Z,62.65
2018-09-06T11:22:47.608Z,62.56
2018-09-06T11:25:14.251Z,61.94
2018-09-06T11:27:40.969Z,62.06
2018-09-06T11:30:07.621Z,62.67
2018-09-06T11:32:34.267Z,62.42
2018-09-06T11:35:00.900Z,62.01
2018-09-06T11:37:27.617Z,62.22
2018-09-06T11:39:54.365Z,62.00
2018-09-06T11:42:21.876Z,61.97
2018-09-06T11:44:48.545Z,62.72
2018-09-06T11:47:17.740Z,63.02
2018-09-06T11:49:44.385Z,62.76
2018-09-06T11:52:12.088Z,62.89
2018-09-06T11:54:38.732Z,62.73
2018-09-06T11:57:05.407Z,62.03
2018-09-06T11:59:32.080Z,62.67
2018-09-06T12:01:58.784Z,62.74
2018-09-06T12:04:25.433Z,62.67
2018-09-06T12:06:52.078Z,62.24
2018-09-06T12:09:20.188Z,62.17
2018-09-06T12:11:46.861Z,62.88
2018-09-06T12:14:13.581Z,62.68
2018-09-06T12:16:41.316Z,62.10
2018-09-06T12:19:07.964Z,62.91
2018-09-06T12:21:34.633Z,62.49
2018-09-06T12:24:01.281Z,62.44
2018-09-06T12:26:27.950Z,63.02
2018-09-06T12:28:54.632Z,62.15
2018-09-06T12:31:22.141Z,62.59
2018-09-06T12:33:48.864Z,62.98
2018-09-06T12:36:16.624Z,62.71
2018-09-06T12:38:43.405Z,62.06
2018-09-06T12:41:10.133Z,62.45
2018-09-06T12:43:37.679Z,62.84
2018-09-06T12:46:04.315Z,62.31
2018-09-06T12:48:31.000Z,62.88
2018-09-06T12:50:58.522Z,61.93
2018-09-06T12:53:26.072Z,62.53
2018-09-06T12:55:54.338Z,62.71
2018-09-06T12:58:21.976Z,61.97
2018-09-06T13:00:51.982Z,61.38
2018-09-06T13:03:18.640Z,61.17
2018-09-06T13:05:46.031Z,59.91
2018-09-06T13:08:13.557Z,59.84
2018-09-06T13:10:40.224Z,59.28
2018-09-06T13:13:07.896Z,59.74
2018-09-06T13:15:35.552Z,59.74
2018-09-06T13:18:03.061Z,59.03
2018-09-06T13:20:30.645Z,60.44
2018-09-06T13:22:58.274Z,59.32
2018-09-06T13:25:25.925Z,59.81
2018-09-06T13:27:52.592Z,60.29
2018-09-06T13:30:19.265Z,59.43
2018-09-06T13:32:47.019Z,59.79
2018-09-06T13:35:14.632Z,59.38
2018-09-06T13:37:42.292Z,60.18
2018-09-06T13:40:09.829Z,60.04
2018-09-06T13:42:37.476Z,60.25
2018-09-06T13:45:04.136Z,60.18
2018-09-06T13:47:31.818Z,60.05
2018-09-06T13:49:59.405Z,59.90
2018-09-06T13:52:27.060Z,60.79
2018-09-06T13:54:54.737Z,60.39
2018-09-06T13:57:22.340Z,60.31
2018-09-06T13:59:50.505Z,60.19
2018-09-06T14:02:17.158Z,60.82
2018-09-06T14:04:44.693Z,61.29
2018-09-06T14:07:12.846Z,60.60
2018-09-06T14:09:40.383Z,60.66
2018-09-06T14:12:07.973Z,60.47
2018-09-06T14:14:35.448Z,60.31
2018-09-06T14:17:02.946Z,60.49
2018-09-06T14:19:30.532Z,61.28
2018-09-06T14:21:58.283Z,60.53
2018-09-06T14:24:25.792Z,61.05
2018-09-06T14:26:53.349Z,60.98
2018-09-06T14:29:21.885Z,61.36
2018-09-06T14:31:50.515Z,61.52
2018-09-06T14:34:18.229Z,60.62
2018-09-06T14:36:47.012Z,60.85
2018-09-06T14:39:13.729Z,60.83
2018-09-06T14:41:41.213Z,61.54
2018-09-06T14:44:08.762Z,61.10
2018-09-06T14:46:36.339Z,61.46
2018-09-06T14:49:03.922Z,61.46
2018-09-06T14:51:31.585Z,60.88
2018-09-06T14:53:58.269Z,61.56
2018-09-06T14:56:25.908Z,61.40
2018-09-06T14:58:53.500Z,61.68
2018-09-06T15:01:22.513Z,61.50
2018-09-06T15:03:49.169Z,60.97
2018-09-06T15:06:16.697Z,60.94
2018-09-06T15:08:43.520Z,61.80
2018-09-06T15:11:10.180Z,61.67
2018-09-06T15:13:37.758Z,60.83
2018-09-06T15:16:05.268Z,60.91
2018-09-06T15:18:32.795Z,61.14
2018-09-06T15:20:59.446Z,61.26
2018-09-06T15:23:26.149Z,61.08
2018-09-06T15:25:53.972Z,62.03
2018-09-06T15:28:21.556Z,61.80
2018-09-06T15:30:48.261Z,61.38
2018-09-06T15:33:16.582Z,61.60
2018-09-06T15:35:44.202Z,61.82
2018-09-06T15:38:11.740Z,61.79
2018-09-06T15:40:39.462Z,61.33
2018-09-06T15:43:06.254Z,61.25
2018-09-06T15:45:32.943Z,61.69
2018-09-06T15:47:59.621Z,61.19
2018-09-06T15:50:26.313Z,61.93
2018-09-06T15:52:53.992Z,61.90
2018-09-06T15:55:21.729Z,62.10
2018-09-06T15:57:48.429Z,61.28
2018-09-06T16:00:16.288Z,61.52
2018-09-06T16:02:43.152Z,61.87
2018-09-06T16:05:09.940Z,62.11
2018-09-06T16:07:37.557Z,62.14
2018-09-06T16:10:04.204Z,62.36
2018-09-06T16:12:31.784Z,62.09
2018-09-06T16:14:59.371Z,61.90
2018-09-06T16:17:26.148Z,62.30
2018-09-06T16:19:52.783Z,61.39
2018-09-06T16:22:19.429Z,61.45
2018-09-06T16:24:46.773Z,62.43
2018-09-06T16:27:13.429Z,62.11
2018-09-06T16:29:40.152Z,62.31
2018-09-06T16:32:06.805Z,62.19
2018-09-06T16:34:33.493Z,62.10
2018-09-06T16:37:00.368Z,62.25
2018-09-06T16:39:27.828Z,62.22
2018-09-06T16:41:54.477Z,61.59
2018-09-06T16:44:23.353Z,61.61
2018-09-06T16:46:51.167Z,62.47
2018-09-06T16:49:17.889Z,62.43
2018-09-06T16:51:45.840Z,62.29
2018-09-06T16:54:12.537Z,61.64
2018-09-06T16:56:40.043Z,62.46
2018-09-06T16:59:06.738Z,62.00
2018-09-06T17:01:33.409Z,61.70
2018-09-06T17:04:00.809Z,61.15
2018-09-06T17:06:28.473Z,61.58
2018-09-06T17:08:55.193Z,61.82
2018-09-06T17:11:21.853Z,62.34
2018-09-06T17:13:48.605Z,62.33
2018-09-06T17:16:15.364Z,62.09
2018-09-06T17:18:42.186Z,62.49
2018-09-06T17:21:08.896Z,62.45
2018-09-06T17:23:35.557Z,61.90
2018-09-06T17:26:02.306Z,62.39
2018-09-06T17:28:29.198Z,62.33
2018-09-06T17:30:55.949Z,62.63
2018-09-06T17:33:22.605Z,61.86
2018-09-06T17:35:49.284Z,62.69
2018-09-06T17:38:16.692Z,62.62
2018-09-06T17:40:43.726Z,61.85
2018-09-06T17:43:10.590Z,61.97
2018-09-06T17:45:37.342Z,62.67
2018-09-06T17:48:04.004Z,62.15
2018-09-06T17:50:30.741Z,62.01
2018-09-06T17:52:57.450Z,62.93
2018-09-06T17:55:24.237Z,62.75
2018-09-06T17:57:51.629Z,62.75
2018-09-06T18:00:18.281Z,62.90
2018-09-06T18:02:45.970Z,62.55
2018-09-06T18:05:12.609Z,62.91
2018-09-06T18:07:39.268Z,62.96
2018-09-06T18:10:06.037Z,62.02
2018-09-06T18:12:32.684Z,62.67
2018-09-06T18:14:59.568Z,62.14
2018-09-06T18:17:26.370Z,62.98
2018-09-06T18:19:53.090Z,63.14
2018-09-06T18:22:20.544Z,62.25
2018-09-06T18:24:48.130Z,62.78
2018-09-06T18:27:14.845Z,62.12
2018-09-06T18:29:41.505Z,63.05
2018-09-06T18:32:08.179Z,62.89
2018-09-06T18:34:34.877Z,62.91
2018-09-06T18:37:01.585Z,62.68
2018-09-06T18:39:28.269Z,62.30
2018-09-06T18:41:54.901Z,62.19
2018-09-06T18:44:21.585Z,63.07
2018-09-06T18:46:49.065Z,63.05
2018-09-06T18:49:17.605Z,62.95
2018-09-06T18:51:44.269Z,62.37
2018-09-06T18:54:11.054Z,62.92
2018-09-06T18:56:37.721Z,62.47
2018-09-06T18:59:04.357Z,63.03
2018-09-06T19:01:31.009Z,63.07
2018-09-06T19:03:57.839Z,62.60
2018-09-06T19:06:24.602Z,63.27
2018-09-06T19:08:51.820Z,62.92
2018-09-06T19:11:20.714Z,62.82
2018-09-06T19:13:47.525Z,63.24
2018-09-06T19:16:14.186Z,62.98
2018-09-06T19:18:40.874Z,63.32
2018-09-06T19:21:08.460Z,62.33
2018-09-06T19:23:35.112Z,63.34
2018-09-06T19:26:01.777Z,63.17
2018-09-06T19:28:28.617Z,62.25
2018-09-06T19:30:55.261Z,63.07
2018-09-06T19:33:21.945Z,62.46
2018-09-06T19:35:48.611Z,63.22
2018-09-06T19:38:15.849Z,63.10
2018-09-06T19:40:42.700Z,63.25
2018-09-06T19:43:09.469Z,62.53
2018-09-06T19:45:37.137Z,62.59
2018-09-06T19:48:04.753Z,62.52
2018-09-06T19:50:31.436Z,62.47
2018-09-06T19:52:58.110Z,63.06
2018-09-06T19:55:24.768Z,62.20
2018-09-06T19:57:52.312Z,62.36
2018-09-06T20:00:21.157Z,63.10
2018-09-06T20:02:47.860Z,62.64
2018-09-06T20:05:14.614Z,62.49
2018-09-06T20:07:41.325Z,62.80
2018-09-06T20:10:07.986Z,62.43
2018-09-06T20:12:34.873Z,63.05
2018-09-06T20:15:01.541Z,63.14
2018-09-06T20:17:28.536Z,62.85
2018-09-06T20:19:56.060Z,63.18
2018-09-06T20:22:23.608Z,62.79
2018-09-06T20:24:51.475Z,62.44
2018-09-06T20:27:18.147Z,63.26
2018-09-06T20:29:44.802Z,63.14
2018-09-06T20:32:11.452Z,62.76
2018-09-06T20:34:38.116Z,62.46
2018-09-06T20:37:04.906Z,63.07
2018-09-06T20:39:31.568Z,63.23
2018-09-06T20:41:58.259Z,62.50
2018-09-06T20:44:24.922Z,63.02
2018-09-06T20:46:51.580Z,63.06
2018-09-06T20:49:18.226Z,63.31
2018-09-06T20:51:44.882Z,62.96
2018-09-06T20:54:11.571Z,63.08
2018-09-06T20:56:38.306Z,63.08
2018-09-06T20:59:04.942Z,63.59
2018-09-06T21:01:31.691Z,62.69
2018-09-06T21:03:59.295Z,62.58
2018-09-06T21:06:26.036Z,62.76
2018-09-06T21:08:52.713Z,63.23
2018-09-06T21:11:19.354Z,63.15
2018-09-06T21:13:46.040Z,62.67
2018-09-06T21:16:12.855Z,63.53
2018-09-06T21:18:39.511Z,62.85
2018-09-06T21:21:06.175Z,62.79
2018-09-06T21:23:37.313Z,63.52
2018-09-06T21:26:03.984Z,62.87
2018-09-06T21:28:30.633Z,63.37
2018-09-06T21:30:58.218Z,62.53
2018-09-06T21:33:24.873Z,62.98
2018-09-06T21:35:52.733Z,63.82
2018-09-06T21:38:21.292Z,62.45
2018-09-06T21:40:47.940Z,62.93
2018-09-06T21:43:14.596Z,62.28
2018-09-06T21:45:41.237Z,62.20
2018-09-06T21:48:07.876Z,62.50
2018-09-06T21:50:34.537Z,62.06
2018-09-06T21:53:02.055Z,63.13
2018-09-06T21:55:29.626Z,62.18
2018-09-06T21:57:57.248Z,63.17
2018-09-06T22:00:23.898Z,62.99
2018-09-06T22:02:57.138Z,62.61
2018-09-06T22:05:23.798Z,62.63
2018-09-06T22:07:52.786Z,62.43
2018-09-06T22:10:22.295Z,62.54
2018-09-06T22:12:49.384Z,61.15
2018-09-06T22:15:16.081Z,63.08
2018-09-06T22:17:43.717Z,61.45
2018-09-06T22:20:10.356Z,62.21
2018-09-06T22:22:37.841Z,62.47
2018-09-06T22:25:05.396Z,62.61
2018-09-06T22:27:32.932Z,62.57
2018-09-06T22:29:59.598Z,62.28
2018-09-06T22:32:26.308Z,62.63
2018-09-06T22:34:52.960Z,62.98
2018-09-06T22:37:20.809Z,63.06
2018-09-06T22:39:47.496Z,62.25
2018-09-06T22:42:16.095Z,62.51
2018-09-06T22:44:42.783Z,63.35
2018-09-06T22:47:10.253Z,62.62
2018-09-06T22:49:36.902Z,62.81
2018-09-06T22:52:03.880Z,62.41
2018-09-06T22:54:30.540Z,63.39
2018-09-06T22:56:58.195Z,62.78
2018-09-06T22:59:24.872Z,62.79
2018-09-06T23:01:52.569Z,62.22
2018-09-06T23:04:21.281Z,63.34
2018-09-06T23:06:47.934Z,62.36
2018-09-06T23:09:15.693Z,62.74
2018-09-06T23:11:43.155Z,62.88
2018-09-06T23:14:09.789Z,62.24
2018-09-06T23:16:36.425Z,61.88
2018-09-06T23:19:03.069Z,62.79
2018-09-06T23:21:29.710Z,62.70
2018-09-06T23:23:56.396Z,61.69
2018-09-06T23:26:23.049Z,61.84
2018-09-06T23:28:50.393Z,62.11
2018-09-06T23:31:17.058Z,62.28
2018-09-06T23:33:43.719Z,61.80
2018-09-06T23:36:11.317Z,62.27
2018-09-06T23:38:38.930Z,62.21
2018-09-06T23:41:06.078Z,61.92
2018-09-06T23:43:33.522Z,62.14
2018-09-06T23:46:00.177Z,61.84
2018-09-06T23:48:28.067Z,62.61
2018-09-06T23:50:55.585Z,62.10
2018-09-06T23:53:22.499Z,62.20
2018-09-06T23:55:49.132Z,61.70
2018-09-06T23:58:17.420Z,62.26
